Time;durP1;ratioP1;P1;durP2;ratioP2;P2;SDS_P1;SDS_P2;PMS_P1;PMS_P2;Temp;Humidity;BMP_temperature;BMP_pressure;BME280_temperature;BME280_humidity;BME280_pressure;Samples;Min_cycle;Max_cycle;Signal;HPM_P1;HPM_P2
2021/05/22 00:01:17;;;;;;;21.00;19.03;;;;;;;13.04;77.61;98217.20;124871;1101;64328;-85
2021/05/22 00:03:44;;;;;;;22.27;20.17;;;;;;;13.02;77.49;98215.64;124573;1103;64362;-85
2021/05/22 00:06:12;;;;;;;19.60;17.57;;;;;;;13.01;77.76;98208.61;124861;1101;64355;-85
2021/05/22 00:08:39;;;;;;;19.90;18.00;;;;;;;12.96;77.78;98212.53;124795;1101;64321;-85
2021/05/22 00:11:07;;;;;;;20.30;18.20;;;;;;;12.95;77.76;98218.00;124824;1101;64278;-85
2021/05/22 00:13:34;;;;;;;19.57;17.60;;;;;;;12.93;77.77;98212.81;124834;1096;64397;-84
2021/05/22 00:16:01;;;;;;;18.20;16.03;;;;;;;12.91;77.75;98198.72;124879;1096;64342;-85
2021/05/22 00:18:28;;;;;;;17.60;15.80;;;;;;;12.91;77.85;98185.35;124914;1101;64348;-84
2021/05/22 00:20:57;;;;;;;17.07;15.37;;;;;;;12.88;77.93;98182.11;124830;1096;64390;-84
2021/05/22 00:23:24;;;;;;;16.80;15.05;;;;;;;12.85;78.11;98180.56;124872;1101;64477;-84
2021/05/22 00:25:52;;;;;;;16.60;14.87;;;;;;;12.77;77.51;98192.90;124831;1102;64423;-85
2021/05/22 00:28:19;;;;;;;15.63;14.03;;;;;;;12.69;77.95;98196.25;124849;1101;64322;-84
2021/05/22 00:30:46;;;;;;;16.53;13.63;;;;;;;12.62;78.01;98184.43;124900;1101;64331;-85
2021/05/22 00:33:13;;;;;;;15.57;12.80;;;;;;;12.62;78.19;98176.41;124820;1096;64585;-83
2021/05/22 00:35:42;;;;;;;14.30;12.90;;;;;;;12.62;78.23;98171.06;124842;1096;64422;-84
2021/05/22 00:38:10;;;;;;;16.60;14.93;;;;;;;12.63;78.47;98170.07;124898;1101;64351;-84
2021/05/22 00:40:37;;;;;;;15.77;13.83;;;;;;;12.62;78.54;98163.88;124822;1096;64264;-84
2021/05/22 00:43:05;;;;;;;13.53;11.00;;;;;;;12.58;78.99;98161.61;124845;1095;64342;-83
2021/05/22 00:45:33;;;;;;;20.33;18.53;;;;;;;12.55;78.51;98165.40;124868;1101;64412;-84
2021/05/22 00:48:02;;;;;;;19.07;17.27;;;;;;;12.52;78.73;98169.19;124817;1096;64248;-83
2021/05/22 00:50:32;;;;;;;19.27;17.50;;;;;;;12.47;78.75;98175.92;124911;1101;64393;-85
2021/05/22 00:53:01;;;;;;;17.43;15.70;;;;;;;12.42;79.01;98170.13;124861;1101;64342;-84
2021/05/22 00:55:29;;;;;;;15.50;13.90;;;;;;;12.38;78.95;98152.70;124841;1101;64297;-84
2021/05/22 00:57:57;;;;;;;17.80;16.00;;;;;;;12.35;78.96;98151.14;124837;1101;64402;-84
2021/05/22 01:00:39;;;;;;;15.73;14.27;;;;;;;12.29;78.82;98163.19;124836;1096;64272;-84
2021/05/22 01:03:10;;;;;;;19.57;17.93;;;;;;;12.19;78.89;98156.98;124838;1095;64299;-84
2021/05/22 01:05:42;;;;;;;16.05;14.45;;;;;;;12.09;78.75;98150.73;124900;1096;64345;-84
2021/05/22 01:08:21;;;;;;;13.13;11.93;;;;;;;12.01;78.88;98147.89;124847;1101;64259;-84
2021/05/22 01:10:56;;;;;;;12.20;11.00;;;;;;;11.96;79.13;98158.12;124832;1101;64390;-84
2021/05/22 01:13:26;;;;;;;14.57;11.93;;;;;;;11.91;79.01;98155.00;124834;1096;64313;-84
2021/05/22 01:15:55;;;;;;;13.45;12.13;;;;;;;11.86;79.09;98150.05;124834;1095;64323;-84
2021/05/22 01:18:24;;;;;;;12.73;11.43;;;;;;;11.81;79.38;98146.89;124918;1101;64332;-84
2021/05/22 01:21:04;;;;;;;12.25;11.00;;;;;;;11.83;79.83;98135.10;124834;1101;64323;-84
2021/05/22 01:23:42;;;;;;;12.03;10.73;;;;;;;11.88;79.74;98133.91;124833;1096;64278;-85
2021/05/22 01:26:12;;;;;;;12.67;11.23;;;;;;;11.89;79.57;98130.24;124884;1096;64483;-84
2021/05/22 01:28:40;;;;;;;15.95;14.35;;;;;;;11.88;79.48;98131.23;124861;1096;64246;-84
2021/05/22 01:31:08;;;;;;;18.43;16.10;;;;;;;11.84;79.68;98134.11;124923;1101;64342;-84
2021/05/22 01:33:36;;;;;;;17.10;15.43;;;;;;;11.79;79.67;98135.48;124927;1101;64435;-84
2021/05/22 01:36:06;;;;;;;15.87;14.23;;;;;;;11.75;79.85;98142.09;124879;1101;64872;-84
2021/05/22 01:38:33;;;;;;;13.63;12.33;;;;;;;11.73;80.31;98136.02;125026;1101;64306;-84
2021/05/22 01:41:01;;;;;;;14.33;12.73;;;;;;;11.75;80.25;98124.23;124950;1101;64422;-84
2021/05/22 01:43:29;;;;;;;13.10;11.90;;;;;;;11.76;80.01;98127.75;124950;1096;64272;-84
2021/05/22 01:45:57;;;;;;;14.23;12.73;;;;;;;11.77;80.22;98122.29;124844;1095;64323;-84
2021/05/22 01:48:27;;;;;;;13.30;11.90;;;;;;;11.78;80.07;98126.64;124796;1101;64309;-84
2021/05/22 01:51:01;;;;;;;15.77;12.97;;;;;;;11.73;79.95;98136.02;124844;1101;64364;-84
2021/05/22 01:53:29;;;;;;;14.83;13.33;;;;;;;11.67;80.15;98141.89;124890;1096;64345;-84
2021/05/22 01:55:57;;;;;;;16.37;14.63;;;;;;;11.64;80.13;98137.66;124839;1101;64470;-83
2021/05/22 01:58:25;;;;;;;17.25;15.45;;;;;;;11.55;80.18;98149.09;124823;1101;64364;-84
2021/05/22 02:00:53;;;;;;;15.97;14.37;;;;;;;11.54;80.17;98139.41;124822;1096;64326;-84
2021/05/22 02:03:48;;;;;;;19.25;14.50;;;;;;;11.54;80.41;98144.75;124804;1095;64352;-83
2021/05/22 02:06:24;;;;;;;29.70;23.40;;;;;;;11.48;80.41;98135.45;124793;1101;64246;-83
2021/05/22 02:08:56;;;;;;;28.97;22.17;;;;;;;11.45;80.57;98141.02;124840;1101;64330;-84
2021/05/22 02:11:27;;;;;;;17.07;14.97;;;;;;;11.45;80.75;98135.68;124852;1096;64287;-84
2021/05/22 02:13:57;;;;;;;14.90;13.37;;;;;;;11.49;80.79;98136.29;124880;1101;64374;-84
2021/05/22 02:16:30;;;;;;;16.20;14.23;;;;;;;11.53;80.87;98124.36;124879;1096;64326;-84
2021/05/22 02:18:59;;;;;;;16.63;14.37;;;;;;;11.50;80.45;98113.95;124950;1101;64256;-85
2021/05/22 02:21:29;;;;;;;19.88;16.78;;;;;;;11.46;80.53;98115.20;124905;1101;64358;-85
2021/05/22 02:23:57;;;;;;;17.75;15.93;;;;;;;11.45;80.31;98119.67;124914;1101;64262;-85
2021/05/22 02:26:27;;;;;;;18.63;16.70;;;;;;;11.31;79.77;98117.34;124831;1096;64419;-84
2021/05/22 02:28:57;;;;;;;18.38;16.48;;;;;;;11.13;80.04;98123.22;124968;1101;64334;-84
2021/05/22 02:31:28;;;;;;;21.70;17.00;;;;;;;11.06;80.32;98130.06;124931;1101;64303;-84
2021/05/22 02:34:01;;;;;;;18.67;16.87;;;;;;;11.00;80.26;98111.88;124900;1101;64417;-84
2021/05/22 02:36:28;;;;;;;17.17;15.37;;;;;;;11.03;80.64;98122.28;124883;1101;64345;-84
2021/05/22 02:39:00;;;;;;;19.60;15.90;;;;;;;11.01;80.33;98134.08;124894;1101;64450;-84
2021/05/22 02:41:29;;;;;;;16.50;14.63;;;;;;;10.94;80.23;98133.73;124912;1096;64447;-85
2021/05/22 02:43:59;;;;;;;16.50;15.00;;;;;;;10.88;80.25;98132.41;124929;1096;64326;-85
2021/05/22 02:46:31;;;;;;;19.45;16.15;;;;;;;10.85;80.34;98132.67;124889;1096;64346;-83
2021/05/22 02:49:00;;;;;;;18.73;16.73;;;;;;;10.76;80.18;98136.91;124889;1101;64240;-84
2021/05/22 02:51:30;;;;;;;16.60;14.70;;;;;;;10.71;80.00;98135.59;124980;1096;64299;-84
2021/05/22 02:53:59;;;;;;;17.93;16.13;;;;;;;10.64;80.03;98129.94;124973;1101;64326;-86
2021/05/22 02:56:27;;;;;;;19.15;17.25;;;;;;;10.62;80.33;98129.20;124733;1101;64421;-84
2021/05/22 02:58:55;;;;;;;20.10;15.63;;;;;;;10.62;80.30;98120.38;124897;1101;64332;-84
2021/05/22 03:01:25;;;;;;;18.20;15.13;;;;;;;10.65;80.37;98117.45;124839;1096;64399;-83
2021/05/22 03:03:55;;;;;;;17.05;15.25;;;;;;;10.69;80.21;98122.42;124806;1101;64272;-84
2021/05/22 03:06:24;;;;;;;17.80;15.90;;;;;;;10.70;80.59;98128.59;124901;1101;64412;-83
2021/05/22 03:08:51;;;;;;;18.65;16.85;;;;;;;10.73;80.36;98117.67;124838;1096;64326;-83
2021/05/22 03:11:21;;;;;;;20.80;18.63;;;;;;;10.80;80.60;98128.70;124869;1095;64326;-84
2021/05/22 03:13:49;;;;;;;21.05;18.95;;;;;;;10.85;80.31;98134.47;125005;1101;64243;-84
2021/05/22 03:16:16;;;;;;;19.70;17.53;;;;;;;10.84;80.53;98127.45;124921;1095;64371;-86
2021/05/22 03:18:44;;;;;;;17.83;16.20;;;;;;;10.84;80.48;98128.30;124691;1102;64673;-85
2021/05/22 03:21:11;;;;;;;17.90;16.00;;;;;;;10.86;80.55;98131.69;124892;1101;64722;-85
2021/05/22 03:23:40;;;;;;;16.93;14.70;;;;;;;10.95;80.49;98130.08;124915;1101;64332;-85
2021/05/22 03:26:07;;;;;;;17.50;14.53;;;;;;;10.96;79.87;98121.13;124939;1096;64332;-83
2021/05/22 03:28:35;;;;;;;17.13;15.43;;;;;;;10.96;80.14;98115.79;124941;1101;64454;-84
2021/05/22 03:31:02;;;;;;;17.67;15.97;;;;;;;11.01;80.38;98120.75;124850;1096;64223;-85
2021/05/22 03:33:29;;;;;;;17.53;15.73;;;;;;;11.20;79.98;98123.57;124834;1096;64281;-84
2021/05/22 03:35:56;;;;;;;18.87;17.03;;;;;;;11.16;80.00;98114.99;124917;1101;64362;-85
2021/05/22 03:38:24;;;;;;;19.93;17.93;;;;;;;11.20;80.46;98107.57;124848;1101;64317;-85
2021/05/22 03:40:51;;;;;;;23.27;17.03;;;;;;;11.28;80.50;98090.92;124804;1101;64948;-84
2021/05/22 03:43:19;;;;;;;29.60;26.43;;;;;;;11.30;80.59;98095.16;124885;1101;64496;-84
2021/05/22 03:45:46;;;;;;;23.90;21.33;;;;;;;11.34;80.56;98095.73;124868;1096;64334;-85
2021/05/22 03:48:13;;;;;;;19.77;17.83;;;;;;;11.29;80.31;98084.60;124856;1101;64329;-84
2021/05/22 03:50:40;;;;;;;20.07;18.17;;;;;;;11.28;80.39;98097.10;124941;1096;64331;-84
2021/05/22 03:53:08;;;;;;;21.43;19.23;;;;;;;11.28;80.38;98091.77;124879;1101;64342;-85
2021/05/22 03:55:35;;;;;;;22.27;19.97;;;;;;;11.33;80.59;98096.72;124821;1101;64473;-85
2021/05/22 03:58:03;;;;;;;21.55;19.35;;;;;;;11.40;80.59;98093.41;124847;1101;64328;-85
2021/05/22 04:00:31;;;;;;;19.90;17.93;;;;;;;11.49;80.66;98093.59;124841;1101;64246;-85
2021/05/22 04:02:58;;;;;;;19.50;17.50;;;;;;;11.62;80.33;98088.91;124952;1096;64299;-84
2021/05/22 04:05:26;;;;;;;17.80;16.10;;;;;;;11.72;80.27;98084.47;124916;1101;64364;-85
2021/05/22 04:07:53;;;;;;;16.90;15.40;;;;;;;11.83;80.19;98075.53;124834;1101;64482;-85
2021/05/22 04:10:20;;;;;;;17.27;15.50;;;;;;;11.97;80.20;98061.84;124898;1096;64358;-85
2021/05/22 04:12:47;;;;;;;17.97;16.30;;;;;;;12.12;80.02;98056.98;124934;1101;64306;-85
2021/05/22 04:15:15;;;;;;;16.50;14.83;;;;;;;12.27;80.10;98054.80;124873;1101;64246;-85
2021/05/22 04:17:42;;;;;;;16.83;15.20;;;;;;;12.42;79.87;98060.58;124802;1101;64368;-85
2021/05/22 04:20:11;;;;;;;18.10;15.13;;;;;;;12.51;79.58;98062.44;124920;1095;64418;-85
2021/05/22 04:22:38;;;;;;;16.40;14.80;;;;;;;12.61;79.68;98057.09;124869;1101;64343;-85
2021/05/22 04:25:05;;;;;;;15.83;14.23;;;;;;;12.84;79.41;98058.52;124860;1096;64336;-85
2021/05/22 04:27:33;;;;;;;16.03;14.53;;;;;;;12.90;79.21;98057.98;124846;1096;64334;-85
2021/05/22 04:30:00;;;;;;;15.85;14.15;;;;;;;12.94;79.21;98064.72;124590;1096;64345;-84
2021/05/22 04:32:27;;;;;;;16.03;14.43;;;;;;;12.99;79.09;98069.66;124910;1101;64425;-85
2021/05/22 04:34:55;;;;;;;16.77;15.13;;;;;;;13.10;79.11;98077.53;124931;1101;64418;-84
2021/05/22 04:37:22;;;;;;;16.73;15.03;;;;;;;13.28;78.93;98075.02;124886;1096;64339;-85
2021/05/22 04:39:50;;;;;;;15.70;14.20;;;;;;;13.46;78.88;98068.95;124926;1095;64326;-86
2021/05/22 04:42:18;;;;;;;15.17;13.77;;;;;;;13.55;78.60;98074.27;124956;1101;64460;-83
2021/05/22 04:44:45;;;;;;;14.57;13.23;;;;;;;13.74;78.34;98085.92;124863;1102;64242;-85
2021/05/22 04:47:13;;;;;;;14.40;13.07;;;;;;;13.94;77.98;98092.08;124847;1101;64274;-85
2021/05/22 04:49:40;;;;;;;19.03;17.17;;;;;;;14.06;77.71;98088.24;124871;1096;64324;-85
2021/05/22 04:52:07;;;;;;;14.23;12.63;;;;;;;14.16;77.54;98077.46;124796;1096;64316;-85
2021/05/22 04:54:35;;;;;;;16.57;14.80;;;;;;;14.24;77.17;98099.88;124886;1096;64518;-85
2021/05/22 04:57:02;;;;;;;16.33;14.63;;;;;;;14.93;76.29;98103.04;124827;1096;64421;-85
2021/05/22 04:59:29;;;;;;;14.27;13.03;;;;;;;15.83;74.74;98106.50;124835;1096;64278;-86
2021/05/22 05:01:57;;;;;;;13.57;12.17;;;;;;;16.55;74.23;98101.66;124842;1101;64351;-86
2021/05/22 05:04:24;;;;;;;9.83;8.93;;;;;;;17.18;73.07;98091.42;124838;1101;64454;-85
2021/05/22 05:06:51;;;;;;;8.30;7.50;;;;;;;17.78;71.62;98093.77;124821;1096;64393;-85
2021/05/22 05:09:20;;;;;;;8.80;8.00;;;;;;;18.40;70.35;98085.02;124896;1095;64321;-85
2021/05/22 05:11:47;;;;;;;10.47;8.97;;;;;;;18.79;69.64;98081.50;124861;1101;64351;-85
2021/05/22 05:14:15;;;;;;;8.37;7.57;;;;;;;18.63;69.22;98077.84;124895;1096;64247;-85
2021/05/22 05:16:43;;;;;;;9.20;8.40;;;;;;;18.77;68.66;98083.53;124840;1096;64329;-85
2021/05/22 05:19:10;;;;;;;10.50;8.65;;;;;;;19.32;67.51;98081.66;124814;1101;64472;-85
2021/05/22 05:21:37;;;;;;;8.10;7.33;;;;;;;19.83;66.45;98079.23;124931;1096;64272;-83
2021/05/22 05:24:04;;;;;;;8.20;7.30;;;;;;;19.62;66.55;98077.20;124837;1095;64352;-83
2021/05/22 05:26:32;;;;;;;8.17;7.47;;;;;;;20.20;65.33;98075.63;124875;1096;64381;-84
2021/05/22 05:28:59;;;;;;;7.93;7.07;;;;;;;21.27;63.50;98064.20;124931;1096;64339;-84
2021/05/22 05:31:26;;;;;;;8.03;7.30;;;;;;;22.03;62.20;98066.30;124929;1101;64333;-83
2021/05/22 05:33:53;;;;;;;7.77;6.43;;;;;;;21.95;62.17;98066.47;124859;1095;64407;-83
2021/05/22 05:36:21;;;;;;;7.67;6.63;;;;;;;21.62;62.00;98075.20;124844;1096;64330;-84
2021/05/22 05:38:48;;;;;;;6.65;5.35;;;;;;;21.21;61.80;98078.53;124873;1096;64352;-85
2021/05/22 05:41:16;;;;;;;5.87;5.27;;;;;;;20.71;61.83;98080.27;124839;1101;64272;-84
2021/05/22 05:43:44;;;;;;;6.83;5.70;;;;;;;20.14;62.16;98085.33;124835;1095;64325;-85
2021/05/22 05:46:11;;;;;;;6.73;6.00;;;;;;;19.51;62.46;98079.31;124881;1101;64325;-84
2021/05/22 05:48:38;;;;;;;6.63;5.97;;;;;;;18.94;63.20;98092.40;124846;1101;64359;-85
2021/05/22 05:51:06;;;;;;;6.83;6.23;;;;;;;18.43;64.05;98100.86;124867;1096;64297;-84
2021/05/22 05:53:34;;;;;;;7.37;5.73;;;;;;;17.97;64.41;98114.98;124857;1096;64326;-84
2021/05/22 05:56:03;;;;;;;6.97;6.10;;;;;;;17.60;65.28;98126.28;124908;1096;64356;-84
2021/05/22 05:58:30;;;;;;;6.50;5.90;;;;;;;17.26;65.02;98126.43;124857;1096;64850;-84
2021/05/22 06:00:57;;;;;;;7.40;6.70;;;;;;;17.02;65.68;98128.06;124836;1101;64361;-84
2021/05/22 06:03:29;;;;;;;6.90;6.10;;;;;;;16.80;66.06;98116.08;124805;1094;64329;-85
2021/05/22 06:05:57;;;;;;;8.70;5.90;;;;;;;16.75;66.43;98109.48;124883;1101;64261;-83
2021/05/22 06:08:25;;;;;;;6.50;5.80;;;;;;;16.78;66.66;98109.17;124883;1094;64246;-83
2021/05/22 06:10:53;;;;;;;6.60;5.80;;;;;;;16.87;66.70;98105.48;124901;1101;64387;-83
2021/05/22 06:13:26;;;;;;;6.00;5.20;;;;;;;17.06;66.20;98107.03;124897;1101;64342;-83
2021/05/22 06:18:37;;;;;;;5.93;4.90;;;;;;;17.57;65.86;98098.84;124896;1095;64316;-85
2021/05/22 06:21:07;;;;;;;6.77;4.47;;;;;;;17.84;65.94;98103.89;124909;1101;64317;-84
2021/05/22 06:23:36;;;;;;;4.60;4.10;;;;;;;17.97;65.09;98106.06;124976;1101;64368;-84
2021/05/22 06:26:04;;;;;;;5.03;4.37;;;;;;;17.96;65.34;98113.31;125022;1101;64322;-84
2021/05/22 06:28:32;;;;;;;4.97;4.47;;;;;;;17.95;65.27;98110.77;124981;1096;64355;-85
2021/05/22 06:31:04;;;;;;;5.03;4.53;;;;;;;18.06;64.39;98109.57;124876;1096;64358;-84
2021/05/22 06:33:32;;;;;;;5.37;4.50;;;;;;;18.17;64.60;98103.84;124846;1095;64259;-85
2021/05/22 06:36:00;;;;;;;6.23;4.60;;;;;;;18.84;63.57;98098.02;124949;1101;64419;-85
2021/05/22 06:38:27;;;;;;;5.87;3.97;;;;;;;19.17;63.09;98104.06;124838;1096;64416;-84
2021/05/22 06:40:54;;;;;;;5.90;4.50;;;;;;;19.20;62.78;98109.10;124952;1101;64334;-83
2021/05/22 06:43:22;;;;;;;5.80;4.10;;;;;;;19.13;62.79;98105.43;124889;1096;64251;-83
2021/05/22 06:46:09;;;;;;;5.23;3.90;;;;;;;19.11;62.21;98112.03;124874;1101;64482;-83
2021/05/22 06:48:36;;;;;;;4.90;3.67;;;;;;;19.04;61.91;98118.16;124859;1101;64387;-85
2021/05/22 06:51:04;;;;;;;3.13;2.80;;;;;;;18.93;61.10;98115.00;125011;1101;64243;-85
2021/05/22 06:53:32;;;;;;;5.07;2.30;;;;;;;18.69;60.80;98111.38;124834;1101;64300;-84
2021/05/22 06:55:59;;;;;;;5.13;2.37;;;;;;;18.45;60.86;98111.48;124896;1101;64355;-85
2021/05/22 06:58:27;;;;;;;3.23;2.13;;;;;;;18.25;61.34;98109.20;124907;1101;64411;-85
2021/05/22 07:00:55;;;;;;;3.80;2.00;;;;;;;18.17;60.97;98099.28;124952;1101;64434;-85
2021/05/22 07:03:22;;;;;;;3.25;2.20;;;;;;;18.29;60.55;98093.50;124834;1096;64332;-85
2021/05/22 07:05:50;;;;;;;4.10;2.50;;;;;;;18.41;60.46;98089.42;124914;1096;64329;-85
2021/05/22 07:08:18;;;;;;;3.60;2.80;;;;;;;18.50;60.95;98079.43;124954;1101;64246;-84
2021/05/22 07:10:47;;;;;;;3.07;2.57;;;;;;;18.64;60.18;98075.97;124806;1096;64353;-84
2021/05/22 07:13:14;;;;;;;4.53;2.60;;;;;;;18.75;59.67;98077.49;124848;1101;64358;-84
2021/05/22 07:15:41;;;;;;;3.83;2.80;;;;;;;18.84;59.92;98081.81;124883;1096;64371;-84
2021/05/22 07:18:09;;;;;;;3.17;2.40;;;;;;;18.84;59.67;98095.31;124845;1101;64355;-85
2021/05/22 07:20:36;;;;;;;6.57;3.60;;;;;;;18.81;59.91;98092.97;124897;1101;64242;-84
2021/05/22 07:23:03;;;;;;;5.90;2.90;;;;;;;18.75;59.63;98105.33;124871;1101;64395;-84
2021/05/22 07:25:31;;;;;;;2.63;2.27;;;;;;;18.84;59.20;98101.55;124909;1096;64246;-84
2021/05/22 07:27:58;;;;;;;3.20;2.33;;;;;;;18.93;59.00;98090.70;124849;1101;64326;-84
2021/05/22 07:30:25;;;;;;;3.07;1.97;;;;;;;19.15;58.43;98095.30;124919;1095;64335;-85
2021/05/22 07:32:52;;;;;;;2.15;1.75;;;;;;;19.43;57.98;98086.63;124960;1096;64307;-84
2021/05/22 07:35:20;;;;;;;1.70;1.43;;;;;;;19.61;57.36;98078.20;124937;1096;64208;-84
2021/05/22 07:37:47;;;;;;;2.60;2.00;;;;;;;19.79;57.04;98076.04;124887;1101;64352;-84
2021/05/22 07:40:15;;;;;;;1.95;1.70;;;;;;;19.97;56.32;98083.81;124888;1101;64419;-84
2021/05/22 07:42:48;;;;;;;4.10;1.80;;;;;;;19.99;55.26;98080.94;124916;1101;64415;-84
2021/05/22 07:45:18;;;;;;;2.27;1.70;;;;;;;19.86;55.36;98084.27;124854;1101;64272;-84
2021/05/22 07:47:46;;;;;;;2.03;1.70;;;;;;;19.71;55.07;98085.06;124887;1096;64262;-84
2021/05/22 07:50:14;;;;;;;4.00;1.70;;;;;;;19.57;53.06;98088.55;124905;1096;64422;-84
2021/05/22 07:52:42;;;;;;;2.70;2.00;;;;;;;19.39;54.77;98086.16;124616;1096;64343;-83
2021/05/22 07:55:11;;;;;;;4.40;2.00;;;;;;;19.25;55.24;98082.39;124860;1095;64332;-84
2021/05/22 07:57:41;;;;;;;5.45;2.35;;;;;;;19.12;55.52;98086.72;124852;1101;64336;-85
2021/05/22 08:00:10;;;;;;;4.78;2.88;;;;;;;18.85;55.90;98088.88;124680;1096;64345;-86
2021/05/22 08:02:37;;;;;;;4.97;2.47;;;;;;;18.60;55.94;98094.39;124976;1096;64297;-84
2021/05/22 08:05:08;;;;;;;3.20;2.43;;;;;;;18.35;56.72;98087.41;124894;1101;64349;-85
2021/05/22 08:07:35;;;;;;;4.20;2.83;;;;;;;18.14;56.88;98091.54;124882;1096;64288;-84
2021/05/22 08:10:04;;;;;;;6.20;3.63;;;;;;;17.90;57.37;98083.48;124859;1101;64246;-84
2021/05/22 08:12:31;;;;;;;4.53;3.30;;;;;;;17.61;57.80;98089.39;125008;1101;64422;-84
2021/05/22 08:14:59;;;;;;;4.73;2.87;;;;;;;17.32;58.28;98097.00;124941;1101;64316;-84
2021/05/22 08:17:26;;;;;;;3.93;2.47;;;;;;;17.10;58.27;98092.25;124897;1101;64329;-85
2021/05/22 08:19:54;;;;;;;4.20;2.70;;;;;;;16.85;58.88;98083.27;124849;1096;64309;-84
2021/05/22 08:22:22;;;;;;;5.37;3.13;;;;;;;16.64;58.82;98089.06;124939;1101;64339;-86
2021/05/22 08:24:49;;;;;;;4.93;3.47;;;;;;;16.51;59.43;98086.86;124849;1101;64415;-85
2021/05/22 08:27:20;;;;;;;4.23;2.90;;;;;;;16.45;60.58;98103.63;124856;1096;64310;-84
2021/05/22 08:29:48;;;;;;;4.57;3.07;;;;;;;16.36;60.20;98099.23;124883;1101;64387;-83
2021/05/22 08:32:15;;;;;;;5.40;3.37;;;;;;;16.25;60.94;98105.74;124833;1101;64336;-85
2021/05/22 08:34:42;;;;;;;5.70;3.20;;;;;;;16.13;61.59;98126.66;124868;1095;64365;-85
2021/05/22 08:37:11;;;;;;;4.90;2.83;;;;;;;15.97;62.87;98129.27;124832;1101;64267;-83
2021/05/22 08:39:43;;;;;;;7.25;3.30;;;;;;;15.74;63.07;98127.08;124926;1101;64323;-84
2021/05/22 08:42:15;;;;;;;4.20;3.53;;;;;;;15.61;63.57;98126.61;124904;1101;64307;-85
2021/05/22 08:44:42;;;;;;;5.80;3.23;;;;;;;15.54;64.18;98144.37;124909;1101;64316;-85
2021/05/22 08:47:12;;;;;;;5.33;3.80;;;;;;;15.41;65.91;98152.81;124897;1096;64303;-85
2021/05/22 08:49:41;;;;;;;7.73;5.40;;;;;;;15.18;65.71;98148.89;125078;1101;64400;-84
2021/05/22 08:52:16;;;;;;;9.37;6.80;;;;;;;14.99;66.77;98145.34;125174;1101;64588;-85
2021/05/22 08:54:46;;;;;;;8.67;6.27;;;;;;;14.86;66.50;98158.28;125104;1096;64281;-86
2021/05/22 08:57:16;;;;;;;8.83;6.30;;;;;;;14.78;67.45;98156.34;125143;1096;64217;-85
2021/05/22 08:59:46;;;;;;;11.83;7.20;;;;;;;14.63;68.11;98169.40;124940;1095;64425;-86
2021/05/22 09:02:20;;;;;;;10.20;5.77;;;;;;;14.50;68.15;98175.06;124870;1101;64348;-84
2021/05/22 09:05:07;;;;;;;9.90;6.47;;;;;;;14.40;68.85;98176.09;124954;1096;64246;-86
2021/05/22 09:07:45;;;;;;;11.40;6.50;;;;;;;14.31;69.23;98177.83;125101;1101;64355;-89
2021/05/22 09:10:23;;;;;;;9.23;6.30;;;;;;;14.21;70.42;98190.41;124961;1101;64275;-87
2021/05/22 09:12:56;;;;;;;12.53;7.23;;;;;;;14.08;70.24;98190.73;125044;1101;64335;-89
2021/05/22 09:15:38;;;;;;;8.73;6.40;;;;;;;13.99;70.48;98196.97;124635;1101;64416;-89
2021/05/22 09:18:12;;;;;;;10.07;6.60;;;;;;;13.93;71.05;98198.39;124620;1094;64332;-85
2021/05/22 09:20:45;;;;;;;8.65;5.85;;;;;;;13.86;72.05;98201.78;124870;1101;64326;-85
2021/05/22 09:23:18;;;;;;;7.10;5.50;;;;;;;13.71;71.94;98199.52;124933;1096;64342;-85
2021/05/22 09:25:46;;;;;;;9.40;5.70;;;;;;;13.59;72.31;98203.35;124892;1101;64333;-86
2021/05/22 09:28:15;;;;;;;6.63;4.33;;;;;;;13.52;72.96;98221.80;124868;1095;64208;-85
2021/05/22 09:30:45;;;;;;;5.43;3.93;;;;;;;13.44;73.34;98228.84;124873;1096;64259;-83
2021/05/22 09:33:14;;;;;;;3.90;3.48;;;;;;;13.31;73.46;98221.91;124931;1101;64348;-85
2021/05/22 09:35:50;;;;;;;4.55;3.08;;;;;;;13.26;74.01;98236.67;124891;1101;64251;-85
2021/05/22 09:38:18;;;;;;;4.53;3.13;;;;;;;13.16;74.52;98245.53;124943;1101;65515;-84
2021/05/22 09:40:46;;;;;;;5.00;3.65;;;;;;;13.12;75.98;98246.78;124962;1101;64352;-83
2021/05/22 09:43:14;;;;;;;6.70;5.50;;;;;;;13.08;75.96;98255.20;124926;1101;64420;-84
2021/05/22 09:45:44;;;;;;;4.97;3.83;;;;;;;13.10;76.05;98245.23;124869;1095;64332;-84
2021/05/22 09:48:18;;;;;;;5.57;3.13;;;;;;;13.13;76.81;98245.78;124882;1101;64384;-84
2021/05/22 09:50:51;;;;;;;4.90;2.70;;;;;;;13.15;76.10;98251.85;124808;1096;64243;-84
2021/05/22 09:53:34;;;;;;;5.25;2.75;;;;;;;13.18;76.02;98242.70;124838;1095;64323;-84
2021/05/22 09:56:10;;;;;;;2.70;2.00;;;;;;;13.26;75.97;98247.38;124877;1096;64592;-84
2021/05/22 09:58:49;;;;;;;3.20;2.60;;;;;;;13.30;76.28;98249.67;124854;1096;64336;-84
2021/05/22 10:01:19;;;;;;;4.27;3.13;;;;;;;13.36;75.67;98250.95;124909;1101;64246;-85
2021/05/22 10:03:47;;;;;;;4.35;3.35;;;;;;;13.49;75.80;98246.17;124871;1101;64268;-85
2021/05/22 10:06:15;;;;;;;3.13;2.83;;;;;;;13.65;75.50;98244.78;124846;1095;64438;-85
2021/05/22 10:08:43;;;;;;;3.43;2.50;;;;;;;13.76;75.43;98248.14;124902;1101;64371;-85
2021/05/22 10:11:11;;;;;;;6.20;3.07;;;;;;;13.89;75.38;98242.50;124607;1094;64380;-85
2021/05/22 10:13:41;;;;;;;4.23;2.37;;;;;;;14.02;74.91;98247.58;124863;1096;64326;-85
2021/05/22 10:16:10;;;;;;;4.33;2.50;;;;;;;14.10;74.87;98247.70;124811;1096;64300;-85
2021/05/22 10:18:37;;;;;;;3.60;2.40;;;;;;;14.23;74.65;98247.41;124834;1101;64246;-85
2021/05/22 10:21:05;;;;;;;4.40;3.10;;;;;;;14.41;74.37;98251.03;124865;1096;64502;-85
2021/05/22 10:23:32;;;;;;;4.03;2.93;;;;;;;14.63;74.39;98243.65;124882;1101;64296;-85
2021/05/22 10:26:01;;;;;;;4.60;3.37;;;;;;;14.82;73.69;98237.36;124942;1101;64249;-85
2021/05/22 10:28:28;;;;;;;5.30;3.75;;;;;;;15.01;73.75;98239.09;124968;1095;64326;-85
2021/05/22 10:30:56;;;;;;;5.55;3.85;;;;;;;15.19;73.13;98248.03;124861;1101;64416;-84
2021/05/22 10:33:24;;;;;;;4.43;3.33;;;;;;;15.24;72.60;98250.27;124875;1096;64582;-85
2021/05/22 10:35:56;;;;;;;4.07;3.63;;;;;;;15.40;72.93;98254.98;124916;1096;64329;-86
2021/05/22 10:38:33;;;;;;;4.55;3.45;;;;;;;15.58;71.99;98245.94;124851;1101;64323;-85
2021/05/22 10:41:12;;;;;;;3.97;3.57;;;;;;;15.72;71.95;98247.30;124933;1096;64336;-85
2021/05/22 10:43:52;;;;;;;4.33;3.90;;;;;;;15.77;71.19;98252.19;124909;1096;64454;-84
2021/05/22 10:46:21;;;;;;;5.50;4.37;;;;;;;15.72;71.66;98263.41;124872;1101;64477;-84
2021/05/22 10:49:00;;;;;;;4.67;3.60;;;;;;;15.76;71.65;98263.95;124888;1101;64365;-85
2021/05/22 10:51:33;;;;;;;5.03;4.53;;;;;;;15.86;71.55;98264.72;124877;1101;64319;-85
2021/05/22 10:54:10;;;;;;;4.95;4.25;;;;;;;15.79;70.50;98258.26;124877;1101;64256;-85
2021/05/22 10:57:03;;;;;;;6.17;4.47;;;;;;;15.71;70.53;98256.34;124869;1101;64272;-84
2021/05/22 10:59:31;;;;;;;4.73;4.23;;;;;;;15.61;69.95;98268.96;124888;1096;64335;-84
2021/05/22 11:02:00;;;;;;;5.83;4.10;;;;;;;15.52;70.38;98268.04;124931;1101;64374;-85
2021/05/22 11:04:30;;;;;;;5.10;4.57;;;;;;;15.51;70.50;98269.05;124867;1101;64243;-85
2021/05/22 11:07:15;;;;;;;5.60;5.00;;;;;;;15.43;70.75;98266.28;124863;1101;64354;-85
2021/05/22 11:09:49;;;;;;;6.43;5.30;;;;;;;15.32;70.82;98275.39;124942;1096;64329;-84
2021/05/22 11:12:18;;;;;;;8.63;6.73;;;;;;;15.24;70.52;98279.80;124945;1101;64497;-85
2021/05/22 11:14:50;;;;;;;9.58;7.35;;;;;;;15.19;71.08;98280.23;124896;1101;64348;-85
2021/05/22 11:17:21;;;;;;;15.30;11.90;;;;;;;15.05;71.42;98283.44;124875;1101;64329;-85
2021/05/22 11:20:11;;;;;;;10.00;6.70;;;;;;;15.00;71.53;98289.23;124951;1096;64272;-85
2021/05/22 11:22:42;;;;;;;6.60;4.80;;;;;;;14.99;71.83;98292.92;125048;1101;64406;-87
2021/05/22 11:25:11;;;;;;;4.43;3.27;;;;;;;15.00;71.77;98289.23;125242;1096;64357;-90
2021/05/22 11:27:48;;;;;;;4.73;3.75;;;;;;;15.00;71.45;98293.77;124707;1101;64387;-88
2021/05/22 11:30:20;;;;;;;4.40;3.70;;;;;;;15.11;71.29;98286.38;124975;1101;64430;-88